createdAt,value
2023-03-06T00:01:10.062Z,13.38
2023-03-06T00:03:37.333Z,12.95
2023-03-06T00:06:04.780Z,13.63
2023-03-06T00:08:31.985Z,13.82
2023-03-06T00:10:59.817Z,13.19
2023-03-06T00:13:30.214Z,13.44
2023-03-06T00:16:02.969Z,13.18
2023-03-06T00:18:30.213Z,13.48
2023-03-06T00:20:57.497Z,12.44
2023-03-06T00:23:24.829Z,12.66
2023-03-06T00:25:52.432Z,12.45
2023-03-06T00:28:19.704Z,11.85
2023-03-06T00:30:47.606Z,11.75
2023-03-06T00:33:14.763Z,12.09
2023-03-06T00:35:42.680Z,12.42
2023-03-06T00:38:13.060Z,12.06
2023-03-06T00:40:42.763Z,12.47
2023-03-06T00:43:10.354Z,12.78
2023-03-06T00:45:37.877Z,12.75
2023-03-06T00:48:05.905Z,12.57
2023-03-06T00:50:33.318Z,12.63
2023-03-06T00:53:00.438Z,12.09
2023-03-06T00:55:29.457Z,12.00
2023-03-06T00:57:56.762Z,12.05
2023-03-06T01:00:24.565Z,12.17
2023-03-06T01:02:53.755Z,12.50
2023-03-06T01:05:21.195Z,12.99
2023-03-06T01:07:48.350Z,13.14
2023-03-06T01:10:15.561Z,13.91
2023-03-06T01:12:42.747Z,13.84
2023-03-06T01:15:13.296Z,13.63
2023-03-06T01:17:40.536Z,13.49
2023-03-06T01:20:08.633Z,13.69
2023-03-06T01:22:35.797Z,13.90
2023-03-06T01:25:03.737Z,13.82
2023-03-06T01:27:30.898Z,14.59
2023-03-06T01:29:58.150Z,14.41
2023-03-06T01:32:25.558Z,14.49
2023-03-06T01:34:52.800Z,14.31
2023-03-06T01:37:19.982Z,14.67
2023-03-06T01:39:47.280Z,14.04
2023-03-06T01:42:14.730Z,14.05
2023-03-06T01:45:12.868Z,13.59
2023-03-06T01:47:40.224Z,13.86
2023-03-06T01:50:13.180Z,13.43
2023-03-06T01:52:52.587Z,13.71
2023-03-06T01:55:31.116Z,13.18
2023-03-06T01:58:03.605Z,12.78
2023-03-06T02:00:31.497Z,12.55
2023-03-06T02:03:09.463Z,12.77
2023-03-06T02:05:37.899Z,12.38
2023-03-06T02:08:08.091Z,13.17
2023-03-06T02:10:35.536Z,13.33
2023-03-06T02:13:03.480Z,12.67
2023-03-06T02:15:31.274Z,12.89
2023-03-06T02:18:00.705Z,13.10
2023-03-06T02:20:46.238Z,13.48
2023-03-06T02:23:40.588Z,13.64
2023-03-06T02:26:09.508Z,13.64
2023-03-06T02:28:36.796Z,13.23
2023-03-06T02:31:04.392Z,13.32
2023-03-06T02:33:31.470Z,13.01
2023-03-06T02:36:02.497Z,13.12
2023-03-06T02:38:55.610Z,13.28
2023-03-06T02:41:22.688Z,13.34
2023-03-06T02:43:52.903Z,13.73
2023-03-06T02:46:20.073Z,14.24
2023-03-06T02:48:47.581Z,14.06
2023-03-06T02:51:14.839Z,13.05
2023-03-06T02:53:42.215Z,12.75
2023-03-06T02:56:09.461Z,12.76
2023-03-06T02:58:36.676Z,12.68
2023-03-06T03:01:04.592Z,12.35
2023-03-06T03:03:33.308Z,11.88
2023-03-06T03:06:01.356Z,12.01
2023-03-06T03:08:28.770Z,12.48
2023-03-06T03:10:57.221Z,12.51
2023-03-06T03:13:24.856Z,12.23
2023-03-06T03:16:07.340Z,12.66
2023-03-06T03:18:35.605Z,12.04
2023-03-06T03:21:10.571Z,12.22
2023-03-06T03:23:37.774Z,12.12
2023-03-06T03:26:18.796Z,12.12
2023-03-06T03:28:46.063Z,12.00
2023-03-06T03:31:14.183Z,11.71
2023-03-06T03:33:41.873Z,11.69
2023-03-06T03:36:09.918Z,12.38
2023-03-06T03:38:37.127Z,12.21
2023-03-06T03:41:05.410Z,12.04
2023-03-06T03:43:32.649Z,12.26
2023-03-06T03:45:59.740Z,12.08
2023-03-06T03:48:26.979Z,12.41
2023-03-06T03:50:54.093Z,12.16
2023-03-06T03:53:21.159Z,12.29
2023-03-06T03:55:49.527Z,12.15
2023-03-06T03:58:17.046Z,12.34
2023-03-06T04:00:44.224Z,12.65
2023-03-06T04:03:11.354Z,13.00
2023-03-06T04:05:38.455Z,13.48
2023-03-06T04:08:05.904Z,13.40
2023-03-06T04:10:34.456Z,13.31
2023-03-06T04:13:01.619Z,13.53
2023-03-06T04:15:28.780Z,13.99
2023-03-06T04:17:55.891Z,14.06
2023-03-06T04:20:23.045Z,14.03
2023-03-06T04:22:50.248Z,13.33
2023-03-06T04:25:17.447Z,12.68
2023-03-06T04:27:44.553Z,12.95
2023-03-06T04:30:12.771Z,13.71
2023-03-06T04:32:39.923Z,13.73
2023-03-06T04:35:07.393Z,13.59
2023-03-06T04:37:34.587Z,13.00
2023-03-06T04:40:01.763Z,12.74
2023-03-06T04:42:29.443Z,12.68
2023-03-06T04:44:56.566Z,13.05
2023-03-06T04:47:23.702Z,13.55
2023-03-06T04:49:51.191Z,13.40
2023-03-06T04:52:18.295Z,13.60
2023-03-06T04:54:46.182Z,13.60
2023-03-06T04:57:14.342Z,12.70
2023-03-06T04:59:41.706Z,12.79
2023-03-06T05:02:09.292Z,12.76
2023-03-06T05:04:36.303Z,13.05
2023-03-06T05:07:03.587Z,12.55
2023-03-06T05:09:30.702Z,13.16
2023-03-06T05:11:57.786Z,13.28
2023-03-06T05:14:25.043Z,13.85
2023-03-06T05:16:52.157Z,14.05
2023-03-06T05:19:19.265Z,13.75
2023-03-06T05:21:46.440Z,13.17
2023-03-06T05:24:13.580Z,12.43
2023-03-06T05:26:40.713Z,12.37
2023-03-06T05:29:07.860Z,12.64
2023-03-06T05:31:35.026Z,12.93
2023-03-06T05:34:02.245Z,11.88
2023-03-06T05:36:29.386Z,12.88
2023-03-06T05:38:56.459Z,13.36
2023-03-06T05:41:23.610Z,13.02
2023-03-06T05:43:53.122Z,13.27
2023-03-06T05:46:20.536Z,13.14
2023-03-06T05:48:47.977Z,13.37
2023-03-06T05:51:15.415Z,12.54
2023-03-06T05:53:42.476Z,13.13
2023-03-06T05:56:29.396Z,12.87
2023-03-06T05:58:56.498Z,13.25
2023-03-06T06:01:25.488Z,13.14
2023-03-06T06:03:52.783Z,12.97
2023-03-06T06:06:19.881Z,12.12
2023-03-06T06:08:47.113Z,-143.63
2023-03-06T06:18:41.370Z,-143.63
2023-03-06T06:21:14.538Z,-143.63
2023-03-06T06:23:42.429Z,-143.63
2023-03-06T06:26:13.604Z,-143.63
2023-03-06T06:28:40.796Z,-143.63
2023-03-06T06:31:13.452Z,-143.63
2023-03-06T06:33:42.006Z,-143.63
2023-03-06T06:36:20.944Z,-143.63
2023-03-06T06:38:49.239Z,-143.63
2023-03-06T06:41:42.273Z,-143.63
2023-03-06T06:44:10.121Z,-143.63
2023-03-06T06:47:20.639Z,-143.63
2023-03-06T06:49:25.137Z,-143.63
2023-03-06T06:51:52.221Z,-143.63
2023-03-06T06:54:20.268Z,-143.63
2023-03-06T06:56:47.636Z,-143.63
2023-03-06T06:59:17.245Z,-143.63
2023-03-06T07:01:45.612Z,-143.63
2023-03-06T07:04:17.283Z,-143.63
2023-03-06T07:06:47.211Z,-143.63
2023-03-06T07:09:24.314Z,-143.63
2023-03-06T07:11:58.469Z,-143.63
2023-03-06T07:14:31.562Z,-143.63
2023-03-06T07:17:01.746Z,-143.63
2023-03-06T07:19:29.821Z,-143.63
2023-03-06T07:22:01.918Z,-143.63
2023-03-06T07:24:31.119Z,-143.63
2023-03-06T07:27:01.502Z,-143.63
2023-03-06T07:29:31.065Z,-143.63
2023-03-06T07:32:02.273Z,-143.63
2023-03-06T07:34:36.352Z,-143.63
2023-03-06T07:37:07.614Z,-143.63
2023-03-06T07:39:44.329Z,-143.63
2023-03-06T07:42:15.890Z,-143.63
2023-03-06T07:44:49.124Z,-143.63
2023-03-06T07:47:17.831Z,-143.63
2023-03-06T07:49:45.306Z,-143.63
2023-03-06T07:52:15.473Z,-143.63
2023-03-06T07:54:46.370Z,-143.63
2023-03-06T07:57:14.255Z,-143.63
2023-03-06T07:59:43.698Z,-143.63
2023-03-06T08:02:12.888Z,-143.63
2023-03-06T08:04:40.165Z,-143.63
2023-03-06T08:07:07.391Z,-143.63
2023-03-06T08:09:36.019Z,-143.63
2023-03-06T08:12:03.224Z,-143.63
2023-03-06T08:14:30.343Z,-143.63
2023-03-06T08:16:57.609Z,-143.63
2023-03-06T08:19:27.119Z,-143.63
2023-03-06T08:21:58.723Z,-143.63
2023-03-06T08:24:25.861Z,-143.63
2023-03-06T08:26:52.953Z,-143.63
2023-03-06T08:29:20.169Z,-143.63
2023-03-06T08:31:57.561Z,-143.63
2023-03-06T08:34:30.928Z,-143.63
2023-03-06T08:37:04.501Z,-143.63
2023-03-06T08:39:39.597Z,-143.63
2023-03-06T08:42:09.493Z,-143.63
2023-03-06T08:44:38.434Z,-143.63
2023-03-06T08:47:06.453Z,-143.63
2023-03-06T08:49:36.614Z,-143.63
2023-03-06T08:52:09.758Z,-143.63
2023-03-06T08:57:25.755Z,-143.63
2023-03-06T08:59:56.426Z,-143.63
2023-03-06T09:02:27.465Z,-143.63
2023-03-06T09:04:54.877Z,-143.63
2023-03-06T09:07:22.311Z,-143.63
2023-03-06T09:09:56.053Z,-143.63
2023-03-06T09:12:25.666Z,-143.63
2023-03-06T09:14:53.852Z,-143.63
2023-03-06T09:17:21.208Z,-143.63
2023-03-06T09:19:48.391Z,-143.63
2023-03-06T09:22:15.539Z,-143.63
2023-03-06T09:24:42.765Z,-143.63
2023-03-06T09:27:17.350Z,-143.63
2023-03-06T09:29:54.063Z,-143.63
2023-03-06T09:32:24.712Z,-143.63
2023-03-06T09:34:53.728Z,-143.63
2023-03-06T09:37:21.163Z,-143.63
2023-03-06T09:39:48.476Z,-143.63
2023-03-06T09:42:23.719Z,-143.63
2023-03-06T09:44:59.158Z,-143.63
2023-03-06T09:47:41.185Z,-143.63
2023-03-06T09:56:31.732Z,-143.63
2023-03-06T09:59:17.837Z,-143.63
2023-03-06T10:02:15.460Z,-143.63
2023-03-06T10:04:50.485Z,-143.63
2023-03-06T10:07:56.051Z,-143.63
2023-03-06T10:11:06.354Z,-143.63
2023-03-06T10:13:50.588Z,-143.63
2023-03-06T10:16:33.413Z,-143.63
2023-03-06T10:19:14.078Z,-143.63
2023-03-06T10:23:14.828Z,-143.63
2023-03-06T10:26:00.949Z,-143.63
2023-03-06T10:29:06.129Z,-143.63
2023-03-06T10:37:24.075Z,-143.63
2023-03-06T10:58:24.927Z,-143.63
2023-03-06T11:01:22.456Z,-143.63
2023-03-06T11:03:52.267Z,-143.63
2023-03-06T11:45:40.669Z,-143.63
2023-03-06T11:48:16.215Z,-143.63
2023-03-06T11:50:50.816Z,-143.63
2023-03-06T11:53:34.347Z,-143.63
2023-03-06T11:59:25.613Z,-143.63
2023-03-06T12:02:28.900Z,-143.63
2023-03-06T12:05:41.128Z,-143.63
2023-03-06T12:08:36.135Z,-143.63
2023-03-06T12:17:54.082Z,-143.63
2023-03-06T12:20:58.792Z,-143.63
2023-03-06T12:24:08.674Z,-143.63
2023-03-06T12:27:45.996Z,-143.63
2023-03-06T12:30:21.879Z,-143.63
2023-03-06T12:39:01.361Z,-143.63
2023-03-06T13:03:30.351Z,-143.63
2023-03-06T13:07:00.653Z,-143.63
2023-03-06T13:09:42.150Z,-143.63
2023-03-06T13:12:22.751Z,-143.63
